sensor_id;sensor_type;location;lat;lon;timestamp;pressure;altitude;pressure_sealevel;temperature;humidity
54900;BME280;40801;41.924;25.562;2023-04-27T00:01:55;98953.50;;;12.03;70.88
54900;BME280;40801;41.924;25.562;2023-04-27T00:04:21;98963.66;;;12.06;71.03
54900;BME280;40801;41.924;25.562;2023-04-27T00:06:46;98964.34;;;11.94;71.48
54900;BME280;40801;41.924;25.562;2023-04-27T00:09:12;98963.19;;;12.04;71.23
54900;BME280;40801;41.924;25.562;2023-04-27T00:11:37;98957.69;;;11.92;71.70
54900;BME280;40801;41.924;25.562;2023-04-27T00:14:02;98978.81;;;11.90;71.94
54900;BME280;40801;41.924;25.562;2023-04-27T00:16:28;98971.97;;;11.84;71.71
54900;BME280;40801;41.924;25.562;2023-04-27T00:18:53;98973.31;;;11.60;72.35
54900;BME280;40801;41.924;25.562;2023-04-27T00:21:20;98977.09;;;11.68;72.28
54900;BME280;40801;41.924;25.562;2023-04-27T00:23:45;98976.50;;;11.45;73.32
54900;BME280;40801;41.924;25.562;2023-04-27T00:26:11;98978.09;;;11.46;73.88
54900;BME280;40801;41.924;25.562;2023-04-27T00:28:36;98986.03;;;11.60;73.44
54900;BME280;40801;41.924;25.562;2023-04-27T00:31:01;98985.19;;;11.68;73.00
54900;BME280;40801;41.924;25.562;2023-04-27T00:33:28;98992.22;;;11.60;73.53
54900;BME280;40801;41.924;25.562;2023-04-27T00:35:54;98992.97;;;11.69;73.08
54900;BME280;40801;41.924;25.562;2023-04-27T00:38:19;98993.81;;;11.61;73.65
54900;BME280;40801;41.924;25.562;2023-04-27T00:40:45;98993.94;;;11.56;73.94
54900;BME280;40801;41.924;25.562;2023-04-27T00:43:10;98991.44;;;11.25;75.63
54900;BME280;40801;41.924;25.562;2023-04-27T00:45:41;99007.97;;;11.41;75.02
54900;BME280;40801;41.924;25.562;2023-04-27T00:48:10;99000.81;;;11.36;75.54
54900;BME280;40801;41.924;25.562;2023-04-27T00:50:35;99010.34;;;11.42;74.74
54900;BME280;40801;41.924;25.562;2023-04-27T00:53:04;99014.94;;;11.25;76.90
54900;BME280;40801;41.924;25.562;2023-04-27T00:55:29;99026.56;;;11.34;75.63
54900;BME280;40801;41.924;25.562;2023-04-27T00:57:55;99027.03;;;11.36;75.60
54900;BME280;40801;41.924;25.562;2023-04-27T01:00:20;99023.34;;;11.14;77.02
54900;BME280;40801;41.924;25.562;2023-04-27T01:02:46;99024.63;;;11.08;77.65
54900;BME280;40801;41.924;25.562;2023-04-27T01:05:13;99032.56;;;11.13;77.67
54900;BME280;40801;41.924;25.562;2023-04-27T01:07:39;99045.59;;;11.11;77.23
54900;BME280;40801;41.924;25.562;2023-04-27T01:10:05;99041.28;;;11.19;76.80
54900;BME280;40801;41.924;25.562;2023-04-27T01:12:31;99027.00;;;11.27;76.71
54900;BME280;40801;41.924;25.562;2023-04-27T01:14:57;99034.94;;;11.24;76.72
54900;BME280;40801;41.924;25.562;2023-04-27T01:17:22;99043.84;;;11.24;76.94
54900;BME280;40801;41.924;25.562;2023-04-27T01:19:48;99049.72;;;11.09;78.03
54900;BME280;40801;41.924;25.562;2023-04-27T01:22:15;99057.50;;;11.10;78.17
54900;BME280;40801;41.924;25.562;2023-04-27T01:24:41;99066.22;;;11.16;77.84
54900;BME280;40801;41.924;25.562;2023-04-27T01:27:06;99065.28;;;11.21;77.89
54900;BME280;40801;41.924;25.562;2023-04-27T01:29:32;99073.06;;;11.22;77.89
54900;BME280;40801;41.924;25.562;2023-04-27T01:31:57;99085.78;;;11.30;77.10
54900;BME280;40801;41.924;25.562;2023-04-27T01:34:23;99085.31;;;11.28;77.27
54900;BME280;40801;41.924;25.562;2023-04-27T01:36:48;99083.22;;;11.16;78.22
54900;BME280;40801;41.924;25.562;2023-04-27T01:39:13;99080.81;;;11.15;78.02
54900;BME280;40801;41.924;25.562;2023-04-27T01:41:39;99080.03;;;11.23;77.06
54900;BME280;40801;41.924;25.562;2023-04-27T01:44:05;99072.41;;;11.25;77.18
54900;BME280;40801;41.924;25.562;2023-04-27T01:46:31;99086.38;;;11.27;77.49
54900;BME280;40801;41.924;25.562;2023-04-27T01:48:56;99081.00;;;11.27;77.51
54900;BME280;40801;41.924;25.562;2023-04-27T01:51:22;99092.59;;;11.28;78.17
54900;BME280;40801;41.924;25.562;2023-04-27T01:53:48;99084.03;;;11.34;76.94
54900;BME280;40801;41.924;25.562;2023-04-27T01:56:13;99101.81;;;11.35;77.36
54900;BME280;40801;41.924;25.562;2023-04-27T01:58:38;99087.69;;;11.30;77.59
54900;BME280;40801;41.924;25.562;2023-04-27T02:01:04;99090.06;;;11.40;76.00
54900;BME280;40801;41.924;25.562;2023-04-27T02:03:29;99084.50;;;11.36;76.87
54900;BME280;40801;41.924;25.562;2023-04-27T02:05:55;99096.38;;;11.27;77.16
54900;BME280;40801;41.924;25.562;2023-04-27T02:08:20;99098.00;;;11.36;76.65
54900;BME280;40801;41.924;25.562;2023-04-27T02:10:45;99095.59;;;11.17;78.29
54900;BME280;40801;41.924;25.562;2023-04-27T02:13:11;99107.66;;;11.11;78.01
54900;BME280;40801;41.924;25.562;2023-04-27T02:15:36;99107.66;;;11.11;78.00
54900;BME280;40801;41.924;25.562;2023-04-27T02:18:02;99112.91;;;11.25;77.80
54900;BME280;40801;41.924;25.562;2023-04-27T02:20:31;99111.00;;;11.26;77.51
54900;BME280;40801;41.924;25.562;2023-04-27T02:22:57;99106.91;;;11.28;77.21
54900;BME280;40801;41.924;25.562;2023-04-27T02:25:23;99116.72;;;11.15;77.92
54900;BME280;40801;41.924;25.562;2023-04-27T02:27:48;99120.69;;;11.27;77.66
54900;BME280;40801;41.924;25.562;2023-04-27T02:30:13;99121.78;;;11.26;77.96
54900;BME280;40801;41.924;25.562;2023-04-27T02:32:39;99120.56;;;11.32;78.02
54900;BME280;40801;41.924;25.562;2023-04-27T02:35:05;99119.28;;;11.29;77.59
54900;BME280;40801;41.924;25.562;2023-04-27T02:37:32;99126.09;;;11.27;77.76
54900;BME280;40801;41.924;25.562;2023-04-27T02:39:58;99129.44;;;11.32;77.92
54900;BME280;40801;41.924;25.562;2023-04-27T02:42:24;99132.78;;;11.29;77.80
54900;BME280;40801;41.924;25.562;2023-04-27T02:44:49;99140.56;;;11.31;78.21
54900;BME280;40801;41.924;25.562;2023-04-27T02:47:15;99132.31;;;11.36;77.90
54900;BME280;40801;41.924;25.562;2023-04-27T02:49:41;99145.66;;;11.32;78.34
54900;BME280;40801;41.924;25.562;2023-04-27T02:52:07;99144.06;;;11.40;77.57
54900;BME280;40801;41.924;25.562;2023-04-27T02:54:33;99149.47;;;11.31;77.74
54900;BME280;40801;41.924;25.562;2023-04-27T02:56:59;99151.38;;;11.31;77.88
54900;BME280;40801;41.924;25.562;2023-04-27T02:59:24;99150.38;;;11.27;77.99
54900;BME280;40801;41.924;25.562;2023-04-27T03:01:50;99151.69;;;11.29;78.01
54900;BME280;40801;41.924;25.562;2023-04-27T03:04:16;99161.69;;;11.37;76.71
54900;BME280;40801;41.924;25.562;2023-04-27T03:06:42;99161.84;;;11.32;77.26
54900;BME280;40801;41.924;25.562;2023-04-27T03:09:08;99165.03;;;11.34;76.84
54900;BME280;40801;41.924;25.562;2023-04-27T03:11:39;99163.44;;;11.33;76.80
54900;BME280;40801;41.924;25.562;2023-04-27T03:14:05;99172.66;;;11.32;77.00
54900;BME280;40801;41.924;25.562;2023-04-27T03:16:34;99175.50;;;11.36;76.81
54900;BME280;40801;41.924;25.562;2023-04-27T03:18:59;99175.19;;;11.29;76.96
54900;BME280;40801;41.924;25.562;2023-04-27T03:21:26;99175.31;;;11.24;77.39
54900;BME280;40801;41.924;25.562;2023-04-27T03:23:52;99174.81;;;11.22;76.93
54900;BME280;40801;41.924;25.562;2023-04-27T03:26:18;99183.06;;;11.16;77.35
54900;BME280;40801;41.924;25.562;2023-04-27T03:28:44;99186.06;;;11.06;78.11
54900;BME280;40801;41.924;25.562;2023-04-27T03:31:12;99185.13;;;11.11;78.09
54900;BME280;40801;41.924;25.562;2023-04-27T03:33:38;99191.47;;;11.15;77.38
54900;BME280;40801;41.924;25.562;2023-04-27T03:36:05;99187.00;;;11.02;78.41
54900;BME280;40801;41.924;25.562;2023-04-27T03:38:31;99192.56;;;11.05;78.02
54900;BME280;40801;41.924;25.562;2023-04-27T03:40:57;99198.59;;;11.02;79.00
54900;BME280;40801;41.924;25.562;2023-04-27T03:43:23;99204.50;;;11.13;77.89
54900;BME280;40801;41.924;25.562;2023-04-27T03:45:49;99201.97;;;11.16;77.99
54900;BME280;40801;41.924;25.562;2023-04-27T03:48:15;99196.56;;;11.16;78.14
54900;BME280;40801;41.924;25.562;2023-04-27T03:50:41;99212.75;;;11.16;78.18
54900;BME280;40801;41.924;25.562;2023-04-27T03:53:07;99213.25;;;11.18;78.11
54900;BME280;40801;41.924;25.562;2023-04-27T03:55:36;99212.78;;;11.25;77.72
54900;BME280;40801;41.924;25.562;2023-04-27T03:58:02;99210.88;;;11.26;77.11
54900;BME280;40801;41.924;25.562;2023-04-27T04:00:27;99221.56;;;11.31;76.99
54900;BME280;40801;41.924;25.562;2023-04-27T04:02:53;99219.00;;;11.34;76.86
54900;BME280;40801;41.924;25.562;2023-04-27T04:05:18;99215.34;;;11.30;77.90
54900;BME280;40801;41.924;25.562;2023-04-27T04:07:44;99221.41;;;11.36;77.50
54900;BME280;40801;41.924;25.562;2023-04-27T04:10:09;99228.22;;;11.33;77.97
54900;BME280;40801;41.924;25.562;2023-04-27T04:12:35;99228.22;;;11.33;77.36
54900;BME280;40801;41.924;25.562;2023-04-27T04:15:04;99238.56;;;11.40;77.38
54900;BME280;40801;41.924;25.562;2023-04-27T04:17:29;99237.00;;;11.47;77.06
54900;BME280;40801;41.924;25.562;2023-04-27T04:19:55;99230.78;;;11.38;77.40
54900;BME280;40801;41.924;25.562;2023-04-27T04:22:20;99233.78;;;11.37;78.19
54900;BME280;40801;41.924;25.562;2023-04-27T04:24:46;99239.53;;;11.44;77.74
54900;BME280;40801;41.924;25.562;2023-04-27T04:27:11;99229.78;;;11.26;78.15
54900;BME280;40801;41.924;25.562;2023-04-27T04:29:37;99235.41;;;11.46;77.43
54900;BME280;40801;41.924;25.562;2023-04-27T04:32:03;99239.22;;;11.45;78.04
54900;BME280;40801;41.924;25.562;2023-04-27T04:34:29;99242.28;;;11.61;77.73
54900;BME280;40801;41.924;25.562;2023-04-27T04:36:54;99248.97;;;11.64;77.60
54900;BME280;40801;41.924;25.562;2023-04-27T04:39:22;99249.63;;;11.78;77.04
54900;BME280;40801;41.924;25.562;2023-04-27T04:41:48;99244.50;;;11.76;77.40
54900;BME280;40801;41.924;25.562;2023-04-27T04:44:14;99253.00;;;11.92;77.26
54900;BME280;40801;41.924;25.562;2023-04-27T04:46:40;99252.84;;;12.06;76.09
54900;BME280;40801;41.924;25.562;2023-04-27T04:49:05;99258.25;;;12.06;75.27
54900;BME280;40801;41.924;25.562;2023-04-27T04:51:31;99270.84;;;12.19;75.89
54900;BME280;40801;41.924;25.562;2023-04-27T04:53:57;99270.19;;;12.22;75.35
54900;BME280;40801;41.924;25.562;2023-04-27T04:56:22;99270.16;;;11.96;75.34
54900;BME280;40801;41.924;25.562;2023-04-27T04:58:47;99275.75;;;12.00;75.17
54900;BME280;40801;41.924;25.562;2023-04-27T05:01:13;99276.69;;;12.04;75.18
54900;BME280;40801;41.924;25.562;2023-04-27T05:03:38;99282.56;;;12.06;74.94
54900;BME280;40801;41.924;25.562;2023-04-27T05:06:04;99279.56;;;11.99;75.27
54900;BME280;40801;41.924;25.562;2023-04-27T05:08:29;99284.00;;;12.03;74.95
54900;BME280;40801;41.924;25.562;2023-04-27T05:10:55;99295.13;;;12.02;75.58
54900;BME280;40801;41.924;25.562;2023-04-27T05:13:20;99291.06;;;11.65;76.56
54900;BME280;40801;41.924;25.562;2023-04-27T05:15:46;99293.50;;;11.84;76.12
54900;BME280;40801;41.924;25.562;2023-04-27T05:18:11;99289.41;;;12.03;74.99
54900;BME280;40801;41.924;25.562;2023-04-27T05:20:37;99295.78;;;12.07;74.82
54900;BME280;40801;41.924;25.562;2023-04-27T05:23:03;99297.38;;;12.26;74.25
54900;BME280;40801;41.924;25.562;2023-04-27T05:25:30;99297.22;;;12.31;74.04
54900;BME280;40801;41.924;25.562;2023-04-27T05:27:55;99303.28;;;12.45;72.82
54900;BME280;40801;41.924;25.562;2023-04-27T05:30:21;99302.97;;;12.47;72.98
54900;BME280;40801;41.924;25.562;2023-04-27T05:32:46;99301.69;;;12.53;72.10
54900;BME280;40801;41.924;25.562;2023-04-27T05:35:12;99303.91;;;12.51;71.80
54900;BME280;40801;41.924;25.562;2023-04-27T05:37:37;99298.81;;;12.58;71.26
54900;BME280;40801;41.924;25.562;2023-04-27T05:40:02;99305.66;;;12.64;71.29
54900;BME280;40801;41.924;25.562;2023-04-27T05:42:30;99309.13;;;12.82;70.43
54900;BME280;40801;41.924;25.562;2023-04-27T05:44:55;99311.63;;;13.04;70.96
54900;BME280;40801;41.924;25.562;2023-04-27T05:47:21;99310.16;;;13.15;70.64
54900;BME280;40801;41.924;25.562;2023-04-27T05:49:53;99310.78;;;13.29;70.82
54900;BME280;40801;41.924;25.562;2023-04-27T05:52:19;99319.63;;;13.47;69.90
54900;BME280;40801;41.924;25.562;2023-04-27T05:54:49;99315.16;;;13.89;69.68
54900;BME280;40801;41.924;25.562;2023-04-27T05:57:14;99314.19;;;14.36;68.64
54900;BME280;40801;41.924;25.562;2023-04-27T05:59:40;99315.44;;;14.38;67.41
54900;BME280;40801;41.924;25.562;2023-04-27T06:02:06;99323.69;;;14.50;67.05
54900;BME280;40801;41.924;25.562;2023-04-27T06:04:32;99318.94;;;14.80;65.76
54900;BME280;40801;41.924;25.562;2023-04-27T06:06:58;99318.81;;;14.77;64.51
54900;BME280;40801;41.924;25.562;2023-04-27T06:09:24;99317.88;;;14.73;64.21
54900;BME280;40801;41.924;25.562;2023-04-27T06:11:49;99320.78;;;14.68;63.95
54900;BME280;40801;41.924;25.562;2023-04-27T06:14:15;99317.25;;;14.55;63.90
54900;BME280;40801;41.924;25.562;2023-04-27T06:16:41;99318.25;;;14.50;64.07
54900;BME280;40801;41.924;25.562;2023-04-27T06:19:06;99321.91;;;14.25;64.71
54900;BME280;40801;41.924;25.562;2023-04-27T06:21:32;99326.78;;;14.11;64.57
54900;BME280;40801;41.924;25.562;2023-04-27T06:23:58;99318.19;;;14.09;65.00
54900;BME280;40801;41.924;25.562;2023-04-27T06:26:24;99324.84;;;14.20;65.41
54900;BME280;40801;41.924;25.562;2023-04-27T06:28:49;99315.63;;;14.12;65.51
54900;BME280;40801;41.924;25.562;2023-04-27T06:31:15;99322.06;;;14.29;63.97
54900;BME280;40801;41.924;25.562;2023-04-27T06:33:40;99329.06;;;14.30;64.26
54900;BME280;40801;41.924;25.562;2023-04-27T06:36:06;99323.63;;;14.30;64.50
54900;BME280;40801;41.924;25.562;2023-04-27T06:38:31;99336.06;;;14.31;63.60
54900;BME280;40801;41.924;25.562;2023-04-27T06:40:57;99335.66;;;14.49;63.82
54900;BME280;40801;41.924;25.562;2023-04-27T06:43:23;99326.56;;;14.66;63.77
54900;BME280;40801;41.924;25.562;2023-04-27T06:45:48;99337.88;;;14.68;62.99
54900;BME280;40801;41.924;25.562;2023-04-27T06:48:14;99335.25;;;14.93;62.27
54900;BME280;40801;41.924;25.562;2023-04-27T06:50:39;99332.00;;;14.99;62.59
54900;BME280;40801;41.924;25.562;2023-04-27T06:53:05;99343.03;;;15.15;61.96
54900;BME280;40801;41.924;25.562;2023-04-27T06:55:30;99334.84;;;15.03;61.11
54900;BME280;40801;41.924;25.562;2023-04-27T06:57:56;99347.44;;;15.19;60.45
54900;BME280;40801;41.924;25.562;2023-04-27T07:00:21;99337.66;;;15.52;59.88
54900;BME280;40801;41.924;25.562;2023-04-27T07:02:47;99333.28;;;15.71;59.76
54900;BME280;40801;41.924;25.562;2023-04-27T07:05:12;99342.00;;;15.89;58.58
54900;BME280;40801;41.924;25.562;2023-04-27T07:07:38;99342.03;;;15.65;57.93
54900;BME280;40801;41.924;25.562;2023-04-27T07:10:03;99339.28;;;15.77;57.83
54900;BME280;40801;41.924;25.562;2023-04-27T07:12:29;99342.13;;;15.80;57.95
54900;BME280;40801;41.924;25.562;2023-04-27T07:14:54;99343.38;;;15.71;57.51
54900;BME280;40801;41.924;25.562;2023-04-27T07:17:20;99339.34;;;15.56;57.63
54900;BME280;40801;41.924;25.562;2023-04-27T07:19:45;99342.97;;;15.36;57.44
54900;BME280;40801;41.924;25.562;2023-04-27T07:22:11;99340.59;;;15.34;58.36
54900;BME280;40801;41.924;25.562;2023-04-27T07:24:36;99352.91;;;15.32;58.51
54900;BME280;40801;41.924;25.562;2023-04-27T07:27:01;99349.84;;;15.21;58.36
54900;BME280;40801;41.924;25.562;2023-04-27T07:29:28;99356.41;;;15.20;58.44
54900;BME280;40801;41.924;25.562;2023-04-27T07:31:55;99364.09;;;15.30;58.49
54900;BME280;40801;41.924;25.562;2023-04-27T07:34:20;99351.19;;;15.27;57.24
54900;BME280;40801;41.924;25.562;2023-04-27T07:36:46;99354.25;;;15.26;56.67
54900;BME280;40801;41.924;25.562;2023-04-27T07:39:11;99366.47;;;15.19;57.35
54900;BME280;40801;41.924;25.562;2023-04-27T07:41:37;99359.56;;;15.22;57.23
54900;BME280;40801;41.924;25.562;2023-04-27T07:44:03;99362.38;;;15.13;56.62
54900;BME280;40801;41.924;25.562;2023-04-27T07:46:28;99369.84;;;15.04;57.27
54900;BME280;40801;41.924;25.562;2023-04-27T07:48:56;99368.81;;;15.09;57.43
54900;BME280;40801;41.924;25.562;2023-04-27T07:51:24;99373.25;;;15.13;57.45
54900;BME280;40801;41.924;25.562;2023-04-27T07:53:49;99371.75;;;15.04;57.12
54900;BME280;40801;41.924;25.562;2023-04-27T07:56:15;99369.06;;;14.83;57.34
54900;BME280;40801;41.924;25.562;2023-04-27T07:58:41;99366.22;;;14.79;57.54
54900;BME280;40801;41.924;25.562;2023-04-27T08:01:07;99378.13;;;14.66;57.83
54900;BME280;40801;41.924;25.562;2023-04-27T08:03:32;99370.56;;;14.72;56.71
54900;BME280;40801;41.924;25.562;2023-04-27T08:05:58;99379.13;;;14.82;56.96
54900;BME280;40801;41.924;25.562;2023-04-27T08:08:23;99377.59;;;14.94;56.33
54900;BME280;40801;41.924;25.562;2023-04-27T08:10:49;99381.50;;;15.05;56.91
54900;BME280;40801;41.924;25.562;2023-04-27T08:13:14;99380.59;;;15.13;56.54
54900;BME280;40801;41.924;25.562;2023-04-27T08:15:40;99377.88;;;15.13;56.17
54900;BME280;40801;41.924;25.562;2023-04-27T08:18:05;99384.22;;;15.05;55.91
54900;BME280;40801;41.924;25.562;2023-04-27T08:20:31;99384.66;;;15.07;55.74
54900;BME280;40801;41.924;25.562;2023-04-27T08:22:56;99377.78;;;14.88;55.56
54900;BME280;40801;41.924;25.562;2023-04-27T08:25:21;99384.22;;;14.84;55.91
54900;BME280;40801;41.924;25.562;2023-04-27T08:27:47;99386.81;;;14.80;56.72
54900;BME280;40801;41.924;25.562;2023-04-27T08:30:12;99382.09;;;14.69;55.87
54900;BME280;40801;41.924;25.562;2023-04-27T08:32:38;99376.69;;;14.18;56.34
54900;BME280;40801;41.924;25.562;2023-04-27T08:35:04;99377.97;;;14.21;56.67
54900;BME280;40801;41.924;25.562;2023-04-27T08:37:30;99390.19;;;14.27;55.99
54900;BME280;40801;41.924;25.562;2023-04-27T08:39:56;99379.56;;;14.43;56.71
54900;BME280;40801;41.924;25.562;2023-04-27T08:42:21;99380.00;;;14.53;56.47
54900;BME280;40801;41.924;25.562;2023-04-27T08:44:47;99381.00;;;14.49;55.74
54900;BME280;40801;41.924;25.562;2023-04-27T08:47:12;99375.81;;;14.77;56.23
54900;BME280;40801;41.924;25.562;2023-04-27T08:49:38;99378.84;;;14.96;55.66
54900;BME280;40801;41.924;25.562;2023-04-27T08:52:13;99379.16;;;15.28;54.94
54900;BME280;40801;41.924;25.562;2023-04-27T08:54:39;99367.66;;;15.43;54.46
54900;BME280;40801;41.924;25.562;2023-04-27T08:57:11;99363.25;;;15.50;52.76
54900;BME280;40801;41.924;25.562;2023-04-27T08:59:37;99358.78;;;15.79;53.25
54900;BME280;40801;41.924;25.562;2023-04-27T09:02:03;99369.53;;;16.12;53.28
54900;BME280;40801;41.924;25.562;2023-04-27T09:04:38;99363.97;;;16.21;50.54
54900;BME280;40801;41.924;25.562;2023-04-27T09:07:15;99364.06;;;16.36;51.72
54900;BME280;40801;41.924;25.562;2023-04-27T09:09:41;99361.53;;;16.56;51.22
54900;BME280;40801;41.924;25.562;2023-04-27T09:12:14;99355.81;;;17.01;49.51
54900;BME280;40801;41.924;25.562;2023-04-27T09:14:40;99355.69;;;17.10;50.39
54900;BME280;40801;41.924;25.562;2023-04-27T09:17:06;99356.56;;;17.29;49.73
54900;BME280;40801;41.924;25.562;2023-04-27T09:19:31;99355.91;;;17.48;48.72
54900;BME280;40801;41.924;25.562;2023-04-27T09:22:03;99347.91;;;17.40;45.93
54900;BME280;40801;41.924;25.562;2023-04-27T09:24:29;99349.44;;;17.69;47.70
54900;BME280;40801;41.924;25.562;2023-04-27T09:26:55;99349.56;;;18.62;47.58
54900;BME280;40801;41.924;25.562;2023-04-27T09:29:31;99342.66;;;19.06;44.27
54900;BME280;40801;41.924;25.562;2023-04-27T09:31:56;99343.41;;;19.68;45.49
54900;BME280;40801;41.924;25.562;2023-04-27T09:34:22;99333.16;;;19.65;44.56
54900;BME280;40801;41.924;25.562;2023-04-27T09:36:47;99334.31;;;19.87;44.43
54900;BME280;40801;41.924;25.562;2023-04-27T09:39:14;99329.06;;;20.01;42.08
54900;BME280;40801;41.924;25.562;2023-04-27T09:41:40;99332.09;;;19.96;42.89
54900;BME280;40801;41.924;25.562;2023-04-27T09:44:06;99331.47;;;20.06;42.78
54900;BME280;40801;41.924;25.562;2023-04-27T09:46:32;99330.78;;;20.13;42.67
54900;BME280;40801;41.924;25.562;2023-04-27T09:48:59;99336.88;;;20.56;42.01
54900;BME280;40801;41.924;25.562;2023-04-27T09:51:25;99329.78;;;20.85;41.74
54900;BME280;40801;41.924;25.562;2023-04-27T09:53:54;99324.75;;;21.27;41.29
54900;BME280;40801;41.924;25.562;2023-04-27T09:57:05;99332.09;;;21.20;39.84
54900;BME280;40801;41.924;25.562;2023-04-27T10:01:54;99330.97;;;20.87;39.68
54900;BME280;40801;41.924;25.562;2023-04-27T10:07:13;99329.22;;;20.72;39.55
54900;BME280;40801;41.924;25.562;2023-04-27T10:09:41;99327.03;;;21.22;38.47
54900;BME280;40801;41.924;25.562;2023-04-27T10:12:26;99331.50;;;21.00;37.47
54900;BME280;40801;41.924;25.562;2023-04-27T10:14:53;99327.56;;;22.44;38.85
54900;BME280;40801;41.924;25.562;2023-04-27T10:20:04;99332.13;;;22.88;35.83
54900;BME280;40801;41.924;25.562;2023-04-27T10:22:46;99333.19;;;22.66;34.99
54900;BME280;40801;41.924;25.562;2023-04-27T10:25:25;99328.72;;;23.59;35.96
54900;BME280;40801;41.924;25.562;2023-04-27T10:27:53;99319.19;;;24.20;35.75
54900;BME280;40801;41.924;25.562;2023-04-27T10:30:20;99334.59;;;23.93;35.89
54900;BME280;40801;41.924;25.562;2023-04-27T10:32:58;99326.72;;;24.02;33.74
54900;BME280;40801;41.924;25.562;2023-04-27T10:35:39;99319.56;;;24.36;33.85
54900;BME280;40801;41.924;25.562;2023-04-27T10:40:35;99332.97;;;23.24;34.70
54900;BME280;40801;41.924;25.562;2023-04-27T10:43:28;99322.81;;;23.57;33.94
54900;BME280;40801;41.924;25.562;2023-04-27T10:46:13;99331.81;;;24.07;34.85
54900;BME280;40801;41.924;25.562;2023-04-27T10:48:42;99326.75;;;25.07;34.24
54900;BME280;40801;41.924;25.562;2023-04-27T10:51:08;99323.25;;;25.58;32.28
54900;BME280;40801;41.924;25.562;2023-04-27T10:53:34;99321.66;;;26.06;32.28
54900;BME280;40801;41.924;25.562;2023-04-27T10:56:00;99312.19;;;26.44;30.93
54900;BME280;40801;41.924;25.562;2023-04-27T10:58:26;99318.72;;;26.58;31.03
54900;BME280;40801;41.924;25.562;2023-04-27T11:00:51;99318.47;;;26.79;30.97
54900;BME280;40801;41.924;25.562;2023-04-27T11:03:20;99312.72;;;26.29;30.61
54900;BME280;40801;41.924;25.562;2023-04-27T11:05:49;99320.63;;;26.27;31.46
54900;BME280;40801;41.924;25.562;2023-04-27T11:08:22;99320.81;;;24.00;32.44
54900;BME280;40801;41.924;25.562;2023-04-27T11:10:50;99322.78;;;23.46;32.73
54900;BME280;40801;41.924;25.562;2023-04-27T11:13:18;99322.75;;;23.21;34.25
54900;BME280;40801;41.924;25.562;2023-04-27T11:15:48;99320.81;;;23.54;33.61
54900;BME280;40801;41.924;25.562;2023-04-27T11:18:18;99326.72;;;23.91;34.15
54900;BME280;40801;41.924;25.562;2023-04-27T11:20:46;99313.38;;;23.79;34.79
54900;BME280;40801;41.924;25.562;2023-04-27T11:23:30;99306.94;;;24.46;33.90
54900;BME280;40801;41.924;25.562;2023-04-27T11:26:15;99313.50;;;24.77;31.31
54900;BME280;40801;41.924;25.562;2023-04-27T11:28:56;99310.25;;;25.55;31.81
54900;BME280;40801;41.924;25.562;2023-04-27T11:31:23;99309.56;;;26.27;30.78
54900;BME280;40801;41.924;25.562;2023-04-27T11:33:48;99307.31;;;26.18;31.66
54900;BME280;40801;41.924;25.562;2023-04-27T11:36:18;99313.69;;;26.49;30.93
54900;BME280;40801;41.924;25.562;2023-04-27T11:38:43;99312.94;;;26.11;30.74
54900;BME280;40801;41.924;25.562;2023-04-27T11:41:09;99319.91;;;26.91;30.57
54900;BME280;40801;41.924;25.562;2023-04-27T11:43:39;99323.94;;;26.82;29.90
54900;BME280;40801;41.924;25.562;2023-04-27T11:46:05;99316.41;;;27.13;28.94
54900;BME280;40801;41.924;25.562;2023-04-27T11:48:38;99320.25;;;27.23;29.40
54900;BME280;40801;41.924;25.562;2023-04-27T11:51:04;99318.69;;;26.92;29.57
54900;BME280;40801;41.924;25.562;2023-04-27T11:53:38;99320.34;;;26.55;30.52
54900;BME280;40801;41.924;25.562;2023-04-27T11:56:05;99313.09;;;26.31;29.97
54900;BME280;40801;41.924;25.562;2023-04-27T11:58:36;99323.22;;;25.62;30.63
54900;BME280;40801;41.924;25.562;2023-04-27T12:01:06;99318.53;;;25.00;31.30
54900;BME280;40801;41.924;25.562;2023-04-27T12:03:31;99325.03;;;24.58;31.99
54900;BME280;40801;41.924;25.562;2023-04-27T12:05:57;99319.59;;;24.19;32.60
54900;BME280;40801;41.924;25.562;2023-04-27T12:08:23;99320.66;;;24.57;32.80
54900;BME280;40801;41.924;25.562;2023-04-27T12:10:49;99321.94;;;24.20;32.57
54900;BME280;40801;41.924;25.562;2023-04-27T12:13:15;99325.16;;;23.51;33.50
54900;BME280;40801;41.924;25.562;2023-04-27T12:15:41;99328.25;;;23.17;33.54
54900;BME280;40801;41.924;25.562;2023-04-27T12:18:07;99330.06;;;22.78;34.11
54900;BME280;40801;41.924;25.562;2023-04-27T12:20:34;99325.69;;;22.59;35.15
54900;BME280;40801;41.924;25.562;2023-04-27T12:23:00;99336.63;;;22.48;35.87
54900;BME280;40801;41.924;25.562;2023-04-27T12:25:25;99331.25;;;22.01;34.84
54900;BME280;40801;41.924;25.562;2023-04-27T12:27:51;99340.16;;;21.90;35.58
54900;BME280;40801;41.924;25.562;2023-04-27T12:30:16;99335.00;;;21.78;36.61
54900;BME280;40801;41.924;25.562;2023-04-27T12:32:42;99332.03;;;21.50;36.29
54900;BME280;40801;41.924;25.562;2023-04-27T12:35:08;99334.94;;;21.27;36.68
54900;BME280;40801;41.924;25.562;2023-04-27T12:37:34;99338.22;;;21.06;36.69
54900;BME280;40801;41.924;25.562;2023-04-27T12:39:59;99331.41;;;21.26;36.48
54900;BME280;40801;41.924;25.562;2023-04-27T12:42:25;99335.97;;;21.15;37.56
54900;BME280;40801;41.924;25.562;2023-04-27T12:44:51;99336.03;;;21.22;37.24
54900;BME280;40801;41.924;25.562;2023-04-27T12:47:18;99335.72;;;20.90;37.76
54900;BME280;40801;41.924;25.562;2023-04-27T12:49:44;99328.34;;;21.35;37.56
54900;BME280;40801;41.924;25.562;2023-04-27T12:52:10;99330.28;;;21.79;37.42
54900;BME280;40801;41.924;25.562;2023-04-27T12:54:36;99329.06;;;21.73;37.54
54900;BME280;40801;41.924;25.562;2023-04-27T12:57:02;99335.28;;;21.66;36.97
54900;BME280;40801;41.924;25.562;2023-04-27T12:59:34;99332.81;;;21.50;37.55